createdAt,value
2018-09-09T00:01:51.249Z,13.00
2018-09-09T00:04:21.087Z,12.90
2018-09-09T00:06:50.113Z,12.80
2018-09-09T00:09:24.549Z,12.80
2018-09-09T00:11:54.180Z,12.90
2018-09-09T00:14:23.362Z,12.80
2018-09-09T00:16:52.580Z,12.90
2018-09-09T00:19:22.239Z,12.80
2018-09-09T00:21:51.361Z,12.80
2018-09-09T00:24:21.197Z,12.80
2018-09-09T00:26:50.244Z,12.80
2018-09-09T00:29:19.295Z,12.70
2018-09-09T00:31:48.357Z,12.70
2018-09-09T00:34:17.464Z,12.60
2018-09-09T00:36:47.249Z,12.60
2018-09-09T00:39:16.317Z,12.60
2018-09-09T00:41:45.386Z,12.50
2018-09-09T00:44:14.466Z,12.50
2018-09-09T00:46:44.211Z,12.50
2018-09-09T00:49:18.703Z,12.40
2018-09-09T00:52:57.140Z,12.40
2018-09-09T00:55:26.363Z,12.30
2018-09-09T00:57:55.571Z,12.30
2018-09-09T01:00:29.843Z,12.30
2018-09-09T01:02:58.925Z,12.20
2018-09-09T01:05:27.969Z,12.20
2018-09-09T01:07:57.009Z,12.20
2018-09-09T01:10:26.788Z,12.30
2018-09-09T01:12:56.485Z,12.20
2018-09-09T01:15:25.589Z,12.20
2018-09-09T01:17:54.853Z,12.30
2018-09-09T01:20:24.026Z,12.30
2018-09-09T01:22:53.821Z,12.30
2018-09-09T01:25:22.905Z,12.30
2018-09-09T01:27:52.052Z,12.30
2018-09-09T01:30:21.320Z,12.40
2018-09-09T01:32:51.114Z,12.40
2018-09-09T01:35:20.773Z,12.30
2018-09-09T01:37:49.810Z,12.30
2018-09-09T01:40:18.841Z,12.20
2018-09-09T01:42:47.931Z,12.10
2018-09-09T01:45:17.067Z,12.10
2018-09-09T01:47:46.147Z,12.10
2018-09-09T01:50:15.337Z,12.00
2018-09-09T01:52:44.536Z,11.90
2018-09-09T01:55:13.640Z,12.00
2018-09-09T01:57:42.960Z,11.90
2018-09-09T02:00:12.978Z,11.80
2018-09-09T02:02:42.060Z,11.80
2018-09-09T02:05:11.824Z,11.80
2018-09-09T02:07:40.887Z,11.70
2018-09-09T02:10:10.353Z,11.70
2018-09-09T02:12:39.472Z,11.60
2018-09-09T02:15:08.560Z,11.60
2018-09-09T02:17:37.622Z,11.60
2018-09-09T02:20:06.718Z,11.60
2018-09-09T02:22:35.796Z,11.60
2018-09-09T02:25:05.081Z,11.60
2018-09-09T02:27:34.244Z,11.60
2018-09-09T02:30:03.425Z,11.60
2018-09-09T02:32:32.537Z,11.50
2018-09-09T02:35:01.630Z,11.60
2018-09-09T02:37:30.748Z,11.50
2018-09-09T02:39:59.956Z,11.40
2018-09-09T02:42:28.996Z,11.30
2018-09-09T02:44:58.262Z,11.30
2018-09-09T02:47:27.373Z,11.20
2018-09-09T02:49:56.493Z,11.20
2018-09-09T02:52:25.833Z,11.20
2018-09-09T02:54:54.924Z,11.10
2018-09-09T02:57:23.955Z,11.10
2018-09-09T02:59:53.887Z,11.10
2018-09-09T03:02:22.997Z,11.10
2018-09-09T03:04:52.052Z,11.00
2018-09-09T03:07:21.132Z,11.10
2018-09-09T03:09:50.372Z,11.10
2018-09-09T03:12:19.490Z,11.10
2018-09-09T03:14:48.646Z,11.10
2018-09-09T03:17:17.739Z,11.10
2018-09-09T03:19:46.896Z,11.20
2018-09-09T03:22:15.968Z,11.20
2018-09-09T03:24:45.209Z,11.20
2018-09-09T03:27:14.315Z,11.10
2018-09-09T03:29:43.579Z,11.10
2018-09-09T03:32:12.672Z,11.10
2018-09-09T03:34:42.732Z,11.10
2018-09-09T03:37:11.820Z,11.00
2018-09-09T03:39:40.968Z,10.90
2018-09-09T03:42:10.134Z,10.90
2018-09-09T03:44:39.155Z,10.90
2018-09-09T03:47:08.372Z,10.90
2018-09-09T03:49:37.650Z,10.90
2018-09-09T03:52:06.770Z,10.90
2018-09-09T03:54:36.385Z,10.90
2018-09-09T03:57:05.684Z,10.90
2018-09-09T03:59:34.932Z,10.90
2018-09-09T04:02:04.001Z,10.80
2018-09-09T04:04:33.090Z,10.80
2018-09-09T04:07:02.413Z,10.80
2018-09-09T04:09:31.484Z,10.80
2018-09-09T04:12:00.546Z,10.80
2018-09-09T04:14:29.714Z,10.70
2018-09-09T04:16:58.788Z,10.70
2018-09-09T04:19:27.864Z,10.70
2018-09-09T04:21:56.919Z,10.70
2018-09-09T04:24:25.974Z,10.60
2018-09-09T04:26:55.129Z,10.60
2018-09-09T04:29:24.173Z,10.60
2018-09-09T04:31:53.255Z,10.60
2018-09-09T04:34:22.288Z,10.50
2018-09-09T04:36:51.368Z,10.40
2018-09-09T04:39:20.515Z,10.50
2018-09-09T04:41:49.558Z,10.50
2018-09-09T04:44:18.810Z,10.50
2018-09-09T04:46:47.932Z,10.40
2018-09-09T04:49:17.153Z,10.40
2018-09-09T04:51:46.396Z,10.40
2018-09-09T04:54:16.007Z,10.40
2018-09-09T04:56:45.044Z,10.50
2018-09-09T04:59:14.206Z,10.50
2018-09-09T05:01:43.278Z,10.50
2018-09-09T05:04:12.880Z,10.50
2018-09-09T05:06:42.561Z,10.50
2018-09-09T05:09:11.605Z,10.70
2018-09-09T05:11:40.687Z,10.70
2018-09-09T05:14:09.765Z,10.80
2018-09-09T05:16:38.992Z,10.80
2018-09-09T05:19:08.093Z,10.90
2018-09-09T05:21:37.275Z,11.10
2018-09-09T05:24:06.337Z,11.20
2018-09-09T05:26:35.447Z,11.30
2018-09-09T05:29:04.561Z,11.40
2018-09-09T05:31:33.718Z,11.60
2018-09-09T05:34:02.752Z,11.70
2018-09-09T05:36:31.771Z,11.80
2018-09-09T05:39:00.837Z,11.90
2018-09-09T05:41:29.888Z,12.10
2018-09-09T05:43:59.720Z,12.30
2018-09-09T05:46:28.900Z,12.30
2018-09-09T05:48:57.960Z,12.30
2018-09-09T05:51:27.008Z,13.00
2018-09-09T05:53:56.252Z,14.00
2018-09-09T05:56:25.296Z,14.40
2018-09-09T05:58:54.401Z,14.50
2018-09-09T06:01:24.328Z,14.70
2018-09-09T06:03:53.500Z,15.30
2018-09-09T06:06:22.575Z,15.70
2018-09-09T06:08:51.628Z,16.00
2018-09-09T06:11:20.672Z,16.40
2018-09-09T06:13:49.835Z,17.50
2018-09-09T06:16:18.941Z,18.50
2018-09-09T06:18:48.455Z,18.80
2018-09-09T06:21:17.557Z,19.00
2018-09-09T06:23:46.624Z,19.70
2018-09-09T06:26:15.733Z,20.10
2018-09-09T06:28:45.448Z,20.20
2018-09-09T06:31:14.493Z,20.20
2018-09-09T06:33:43.621Z,20.20
2018-09-09T06:36:12.581Z,20.10
2018-09-09T06:38:41.668Z,20.00
2018-09-09T06:41:12.092Z,19.90
2018-09-09T06:43:41.194Z,19.90
2018-09-09T06:46:10.249Z,19.90
2018-09-09T06:48:40.100Z,19.60
2018-09-09T06:51:09.226Z,19.60
2018-09-09T06:53:38.828Z,19.90
2018-09-09T06:56:07.927Z,20.40
2018-09-09T06:58:36.916Z,21.20
2018-09-09T07:01:06.189Z,21.60
2018-09-09T07:03:35.972Z,22.20
2018-09-09T07:06:05.030Z,22.50
2018-09-09T07:08:34.236Z,23.10
2018-09-09T07:11:03.567Z,23.70
2018-09-09T07:13:33.164Z,24.80
2018-09-09T07:16:02.432Z,25.10
2018-09-09T07:18:31.694Z,25.40
2018-09-09T07:21:00.735Z,25.60
2018-09-09T07:23:29.808Z,25.90
2018-09-09T07:25:59.724Z,25.60
2018-09-09T07:28:28.968Z,26.00
2018-09-09T07:30:58.156Z,25.20
2018-09-09T07:33:27.252Z,25.30
2018-09-09T07:35:56.454Z,25.20
2018-09-09T07:38:25.517Z,25.00
2018-09-09T07:40:54.593Z,24.40
2018-09-09T07:43:23.672Z,24.40
2018-09-09T07:45:52.803Z,25.00
2018-09-09T07:48:21.885Z,25.10
2018-09-09T07:50:51.019Z,24.70
2018-09-09T07:53:20.889Z,24.40
2018-09-09T07:55:49.921Z,24.00
2018-09-09T07:58:19.715Z,24.20
2018-09-09T08:00:48.797Z,24.20
2018-09-09T08:03:18.048Z,24.20
2018-09-09T08:05:47.085Z,24.20
2018-09-09T08:08:16.138Z,24.20
2018-09-09T08:10:45.193Z,24.50
2018-09-09T08:13:14.819Z,24.60
2018-09-09T08:15:43.905Z,24.60
2018-09-09T08:18:13.663Z,24.80
2018-09-09T08:20:42.836Z,25.10
2018-09-09T08:23:12.237Z,25.60
2018-09-09T08:25:41.279Z,26.10
2018-09-09T08:28:11.060Z,26.60
2018-09-09T08:30:40.104Z,26.50
2018-09-09T08:33:09.260Z,26.50
2018-09-09T08:35:38.346Z,27.00
2018-09-09T08:38:07.396Z,27.10
2018-09-09T08:40:36.586Z,26.90
2018-09-09T08:43:05.680Z,26.70
2018-09-09T08:45:34.830Z,26.80
2018-09-09T08:48:03.886Z,26.30
2018-09-09T08:50:33.060Z,26.00
2018-09-09T08:53:02.119Z,25.50
2018-09-09T08:55:31.290Z,25.50
2018-09-09T08:58:00.508Z,25.60
2018-09-09T09:00:29.759Z,25.40
2018-09-09T09:02:59.584Z,25.80
2018-09-09T09:05:29.233Z,26.20
2018-09-09T09:07:59.019Z,26.80
2018-09-09T09:10:27.968Z,27.30
2018-09-09T09:12:57.008Z,27.30
2018-09-09T09:15:26.072Z,27.70
2018-09-09T09:17:55.225Z,28.00
2018-09-09T09:20:25.005Z,28.30
2018-09-09T09:22:54.085Z,28.90
2018-09-09T09:25:23.272Z,29.30
2018-09-09T09:27:52.329Z,29.70
2018-09-09T09:30:21.432Z,29.90
2018-09-09T09:32:50.496Z,30.00
2018-09-09T09:35:19.537Z,30.00
2018-09-09T09:37:48.686Z,29.90
2018-09-09T09:40:17.873Z,30.20
2018-09-09T09:42:46.997Z,30.60
2018-09-09T09:45:16.056Z,31.10
2018-09-09T09:47:45.192Z,31.40
2018-09-09T09:50:14.491Z,31.80
2018-09-09T09:52:43.769Z,31.80
2018-09-09T09:55:13.123Z,32.10
2018-09-09T09:57:42.091Z,31.90
2018-09-09T10:00:16.626Z,32.30
2018-09-09T10:02:45.683Z,32.40
2018-09-09T10:05:14.736Z,32.90
2018-09-09T10:07:43.866Z,32.70
2018-09-09T10:10:13.073Z,32.70
2018-09-09T10:12:42.417Z,32.40
2018-09-09T10:15:11.556Z,32.50
2018-09-09T10:17:40.547Z,32.30
2018-09-09T10:20:09.637Z,32.40
2018-09-09T10:22:39.424Z,32.40
2018-09-09T10:25:08.511Z,32.70
2018-09-09T10:27:37.665Z,32.90
2018-09-09T10:30:06.836Z,32.70
2018-09-09T10:32:36.113Z,32.50
2018-09-09T10:35:05.271Z,32.50
2018-09-09T10:37:34.424Z,32.20
2018-09-09T10:40:03.521Z,32.20
2018-09-09T10:42:32.639Z,32.40
2018-09-09T10:45:02.711Z,32.30
2018-09-09T10:47:31.811Z,32.50
2018-09-09T10:50:00.925Z,32.30
2018-09-09T10:52:30.028Z,32.30
2018-09-09T10:54:59.826Z,32.30
2018-09-09T10:57:28.968Z,32.10
2018-09-09T10:59:58.024Z,32.10
2018-09-09T11:02:27.084Z,32.10
2018-09-09T11:04:56.817Z,31.80
2018-09-09T11:07:25.919Z,31.90
2018-09-09T11:09:55.011Z,31.80
2018-09-09T11:12:30.776Z,31.80
2018-09-09T11:15:01.330Z,31.50
2018-09-09T11:17:31.095Z,31.10
2018-09-09T11:20:00.156Z,31.00
2018-09-09T11:22:29.619Z,30.90
2018-09-09T11:24:58.728Z,31.50
2018-09-09T11:27:27.900Z,32.10
2018-09-09T11:29:57.058Z,32.80
2018-09-09T11:32:26.163Z,33.00
2018-09-09T11:34:55.271Z,33.10
2018-09-09T11:37:24.317Z,33.20
2018-09-09T11:39:53.369Z,33.40
2018-09-09T11:42:22.558Z,33.60
2018-09-09T11:44:51.606Z,33.70
2018-09-09T11:47:21.423Z,33.60
2018-09-09T11:49:50.438Z,33.80
2018-09-09T11:52:19.558Z,33.80
2018-09-09T11:54:49.204Z,33.70
2018-09-09T11:57:18.413Z,34.00
2018-09-09T11:59:47.484Z,34.00
2018-09-09T12:02:16.592Z,34.00
2018-09-09T12:04:45.681Z,34.50
2018-09-09T12:07:14.813Z,34.80
2018-09-09T12:09:43.889Z,34.80
2018-09-09T12:12:12.960Z,35.10
2018-09-09T12:14:42.030Z,35.00
2018-09-09T12:17:11.116Z,34.70
2018-09-09T12:19:40.924Z,34.40
2018-09-09T12:22:09.993Z,34.30
2018-09-09T12:24:39.043Z,34.70
2018-09-09T12:27:08.227Z,35.30
2018-09-09T12:29:37.353Z,35.40
2018-09-09T12:32:06.768Z,35.60
2018-09-09T12:34:35.967Z,35.30
2018-09-09T12:37:05.128Z,34.80
2018-09-09T12:39:35.086Z,34.60
2018-09-09T12:42:04.367Z,34.60
2018-09-09T12:44:38.755Z,35.20
2018-09-09T12:48:17.458Z,35.40
2018-09-09T12:50:46.680Z,35.50
2018-09-09T12:53:16.519Z,35.20
2018-09-09T12:55:46.092Z,35.00
2018-09-09T12:58:15.161Z,34.90
2018-09-09T13:00:44.257Z,35.00
2018-09-09T13:03:13.372Z,34.90
2018-09-09T13:05:42.484Z,34.60
2018-09-09T13:08:12.546Z,34.60
2018-09-09T13:10:41.751Z,35.20
2018-09-09T13:13:17.897Z,35.20
2018-09-09T13:18:16.286Z,34.20
2018-09-09T13:20:45.460Z,34.30
2018-09-09T13:23:14.575Z,34.70
2018-09-09T13:25:43.639Z,35.10
2018-09-09T13:28:12.830Z,35.10
2018-09-09T13:30:41.988Z,34.70
2018-09-09T13:33:11.082Z,34.80
2018-09-09T13:35:40.200Z,34.70
2018-09-09T13:38:09.301Z,34.70
2018-09-09T13:40:38.393Z,34.80
2018-09-09T13:43:07.492Z,34.60
2018-09-09T13:45:36.626Z,34.20
2018-09-09T13:48:05.869Z,33.60
2018-09-09T13:50:35.027Z,33.00
2018-09-09T13:53:04.135Z,33.20
2018-09-09T13:55:33.233Z,33.30
2018-09-09T13:58:02.397Z,33.50
2018-09-09T14:00:31.446Z,33.50
2018-09-09T14:03:00.545Z,33.70
2018-09-09T14:05:29.563Z,33.90
2018-09-09T14:07:58.727Z,33.70
2018-09-09T14:10:27.906Z,33.70
2018-09-09T14:12:56.976Z,33.80
2018-09-09T14:15:25.986Z,33.50
2018-09-09T14:17:55.057Z,33.20
2018-09-09T14:20:24.214Z,33.20
2018-09-09T14:22:53.469Z,33.00
2018-09-09T14:25:22.577Z,32.90
2018-09-09T14:27:51.763Z,32.80
2018-09-09T14:30:21.000Z,32.30
2018-09-09T14:32:50.368Z,32.10
2018-09-09T14:35:19.590Z,32.10
2018-09-09T14:37:48.620Z,32.20
2018-09-09T14:40:17.741Z,32.20
2018-09-09T14:42:46.906Z,32.60
2018-09-09T14:45:16.325Z,32.70
2018-09-09T14:47:45.358Z,33.00
2018-09-09T14:50:14.543Z,33.10
2018-09-09T14:52:43.695Z,33.10
2018-09-09T14:55:13.236Z,33.10
2018-09-09T14:57:42.346Z,32.80
2018-09-09T15:00:13.398Z,32.80
2018-09-09T15:02:43.176Z,32.90
2018-09-09T15:05:12.300Z,32.90
2018-09-09T15:07:41.372Z,32.80
2018-09-09T15:10:10.502Z,32.80
2018-09-09T15:12:39.633Z,32.80
2018-09-09T15:15:08.738Z,32.90
2018-09-09T15:17:37.863Z,33.00
2018-09-09T15:20:07.036Z,33.00
2018-09-09T15:22:36.177Z,32.90
2018-09-09T15:25:05.338Z,33.10
2018-09-09T15:27:34.461Z,33.10
2018-09-09T15:30:03.673Z,32.80
2018-09-09T15:32:32.888Z,33.00
2018-09-09T15:35:02.094Z,32.80
2018-09-09T15:37:31.232Z,32.80
2018-09-09T15:40:00.401Z,32.80
2018-09-09T15:42:29.416Z,32.80
2018-09-09T15:44:58.546Z,32.80
2018-09-09T15:47:27.656Z,32.80
2018-09-09T15:49:56.734Z,33.00
2018-09-09T15:52:25.882Z,32.90
2018-09-09T15:54:55.014Z,32.80
2018-09-09T15:57:24.056Z,32.80
2018-09-09T15:59:53.244Z,32.80
2018-09-09T16:02:22.301Z,32.70
2018-09-09T16:04:51.403Z,32.70
2018-09-09T16:07:21.208Z,32.80
2018-09-09T16:09:50.363Z,32.80
2018-09-09T16:12:19.393Z,32.50
2018-09-09T16:14:48.500Z,32.20
2018-09-09T16:17:17.582Z,31.60
2018-09-09T16:19:46.645Z,31.10
2018-09-09T16:22:15.670Z,30.50
2018-09-09T16:24:44.880Z,29.80
2018-09-09T16:27:13.952Z,29.30
2018-09-09T16:29:43.068Z,28.80
2018-09-09T16:32:12.158Z,28.40
2018-09-09T16:34:41.247Z,28.10
2018-09-09T16:37:10.288Z,27.70
2018-09-09T16:39:39.481Z,27.50
2018-09-09T16:42:08.484Z,27.40
2018-09-09T16:44:37.662Z,27.30
2018-09-09T16:47:06.733Z,27.10
2018-09-09T16:49:36.049Z,26.90
2018-09-09T16:52:05.154Z,26.70
2018-09-09T16:54:34.240Z,26.60
2018-09-09T16:57:03.393Z,26.50
2018-09-09T16:59:32.476Z,26.30
2018-09-09T17:02:01.567Z,26.10
2018-09-09T17:04:30.679Z,26.00
2018-09-09T17:06:59.708Z,25.80
2018-09-09T17:09:28.899Z,25.70
2018-09-09T17:11:58.016Z,25.60
2018-09-09T17:14:27.078Z,25.40
2018-09-09T17:16:56.187Z,25.10
2018-09-09T17:19:25.327Z,24.80
2018-09-09T17:21:54.490Z,24.60
2018-09-09T17:24:23.596Z,24.30
2018-09-09T17:26:53.399Z,24.10
2018-09-09T17:29:23.669Z,23.90
2018-09-09T17:31:52.732Z,23.60
2018-09-09T17:34:21.931Z,23.50
2018-09-09T17:36:51.248Z,23.20
2018-09-09T17:39:20.380Z,23.00
2018-09-09T17:41:49.449Z,22.80
2018-09-09T17:44:18.508Z,22.60
2018-09-09T17:46:47.624Z,22.30
2018-09-09T17:49:16.708Z,22.10
2018-09-09T17:51:45.927Z,21.80
2018-09-09T17:54:15.086Z,21.80
2018-09-09T17:56:44.121Z,21.60
2018-09-09T17:59:13.324Z,21.40
2018-09-09T18:01:42.677Z,21.20
2018-09-09T18:04:11.693Z,21.10
2018-09-09T18:06:42.017Z,21.00
2018-09-09T18:09:11.222Z,21.00
2018-09-09T18:11:40.463Z,20.90
2018-09-09T18:14:09.516Z,20.80
2018-09-09T18:16:38.548Z,20.80
2018-09-09T18:19:08.145Z,20.70
2018-09-09T18:21:37.204Z,20.60
2018-09-09T18:24:06.295Z,20.50
2018-09-09T18:26:35.360Z,20.30
2018-09-09T18:29:04.466Z,20.20
2018-09-09T18:31:33.550Z,19.90
2018-09-09T18:34:02.560Z,19.80
2018-09-09T18:36:31.631Z,19.70
2018-09-09T18:39:00.829Z,19.60
2018-09-09T18:41:29.796Z,19.50
2018-09-09T18:43:58.992Z,19.50
2018-09-09T18:46:28.539Z,19.40
2018-09-09T18:48:57.689Z,19.40
2018-09-09T18:51:26.748Z,19.30
2018-09-09T18:53:55.891Z,19.30
2018-09-09T18:56:24.994Z,19.30
2018-09-09T18:58:54.030Z,19.20
2018-09-09T19:01:23.147Z,19.10
2018-09-09T19:03:52.181Z,19.00
2018-09-09T19:06:21.322Z,18.90
2018-09-09T19:08:50.418Z,18.70
2018-09-09T19:11:19.535Z,18.60
2018-09-09T19:13:48.613Z,18.40
2018-09-09T19:16:18.373Z,18.40
2018-09-09T19:18:47.553Z,18.30
2018-09-09T19:21:16.626Z,18.30
2018-09-09T19:23:45.702Z,18.20
2018-09-09T19:26:14.861Z,18.20
2018-09-09T19:28:43.919Z,18.10
2018-09-09T19:31:12.961Z,18.10
2018-09-09T19:33:41.982Z,18.10
2018-09-09T19:36:11.047Z,18.10
2018-09-09T19:38:40.084Z,18.00
2018-09-09T19:41:09.357Z,18.00
2018-09-09T19:43:39.223Z,17.90
2018-09-09T19:46:08.498Z,17.80
2018-09-09T19:48:37.647Z,17.70
2018-09-09T19:51:06.880Z,17.60
2018-09-09T19:53:35.989Z,17.60
2018-09-09T19:56:05.067Z,17.50
2018-09-09T19:58:34.174Z,17.40
2018-09-09T20:01:03.294Z,17.30
2018-09-09T20:03:32.365Z,17.20
2018-09-09T20:06:01.435Z,17.20
2018-09-09T20:08:30.937Z,17.20
2018-09-09T20:10:59.998Z,17.00
2018-09-09T20:13:29.364Z,16.90
2018-09-09T20:15:58.488Z,16.60
2018-09-09T20:18:27.543Z,16.60
2018-09-09T20:20:56.644Z,16.60
2018-09-09T20:23:25.752Z,16.60
2018-09-09T20:25:55.578Z,16.60
2018-09-09T20:28:24.827Z,16.40
2018-09-09T20:30:54.833Z,16.20
2018-09-09T20:33:23.982Z,16.20
2018-09-09T20:35:53.344Z,16.10
2018-09-09T20:38:23.478Z,16.10
2018-09-09T20:40:52.760Z,16.10
2018-09-09T20:43:23.225Z,16.10
2018-09-09T20:45:52.476Z,16.10
2018-09-09T20:48:21.905Z,16.00
2018-09-09T20:50:51.050Z,15.90
2018-09-09T20:53:20.159Z,15.80
2018-09-09T20:55:49.204Z,15.80
2018-09-09T20:58:18.349Z,15.60
2018-09-09T21:00:47.413Z,15.50
2018-09-09T21:03:16.541Z,15.40
2018-09-09T21:05:45.858Z,15.40
2018-09-09T21:08:15.073Z,15.30
2018-09-09T21:10:44.340Z,15.30
2018-09-09T21:13:13.853Z,15.20
2018-09-09T21:15:43.074Z,15.10
2018-09-09T21:18:12.198Z,15.10
2018-09-09T21:20:42.117Z,15.00
2018-09-09T21:23:11.214Z,14.90
2018-09-09T21:25:40.244Z,14.80
2018-09-09T21:28:09.337Z,14.80
2018-09-09T21:30:39.172Z,14.90
2018-09-09T21:33:09.143Z,14.90
2018-09-09T21:35:38.262Z,14.90
2018-09-09T21:38:07.569Z,14.90
2018-09-09T21:40:36.824Z,14.80
2018-09-09T21:43:06.184Z,14.80
2018-09-09T21:45:35.426Z,14.80
2018-09-09T21:48:04.835Z,14.90
2018-09-09T21:50:34.064Z,14.90
2018-09-09T21:53:03.137Z,14.90
2018-09-09T21:55:32.333Z,14.90
2018-09-09T21:58:01.418Z,14.80
2018-09-09T22:03:09.607Z,14.90
2018-09-09T22:05:38.837Z,15.00
2018-09-09T22:08:08.106Z,15.00
2018-09-09T22:10:37.414Z,15.00
2018-09-09T22:13:06.661Z,15.10
2018-09-09T22:15:36.674Z,15.10
2018-09-09T22:18:05.854Z,15.10
2018-09-09T22:20:36.195Z,15.00
2018-09-09T22:23:05.297Z,15.00
2018-09-09T22:25:36.026Z,14.90
2018-09-09T22:28:05.593Z,14.80
2018-09-09T22:30:34.749Z,14.80
2018-09-09T22:33:03.896Z,14.70
2018-09-09T22:35:33.052Z,14.70
2018-09-09T22:38:02.176Z,14.60
2018-09-09T22:40:31.424Z,14.60
2018-09-09T22:43:00.665Z,14.60
2018-09-09T22:45:30.127Z,14.60
2018-09-09T22:47:59.348Z,14.60
2018-09-09T22:50:28.648Z,14.50
2018-09-09T22:52:57.811Z,14.50
2018-09-09T22:55:26.914Z,14.40
2018-09-09T22:57:55.961Z,14.40
2018-09-09T23:00:25.168Z,14.30
2018-09-09T23:02:54.384Z,14.20
2018-09-09T23:05:23.951Z,14.20
2018-09-09T23:07:53.019Z,14.00
2018-09-09T23:10:22.504Z,14.00
2018-09-09T23:12:51.818Z,14.00
2018-09-09T23:15:26.138Z,13.90
2018-09-09T23:17:55.582Z,13.90
2018-09-09T23:20:24.906Z,13.80
2018-09-09T23:22:54.309Z,13.80
2018-09-09T23:25:24.147Z,13.70
2018-09-09T23:27:53.741Z,13.70
2018-09-09T23:30:23.092Z,13.60
2018-09-09T23:32:52.428Z,13.60
2018-09-09T23:35:21.792Z,13.60
2018-09-09T23:37:50.860Z,13.60
2018-09-09T23:40:20.376Z,13.60
2018-09-09T23:42:49.409Z,13.50
2018-09-09T23:45:18.500Z,13.50
2018-09-09T23:47:47.586Z,13.40
2018-09-09T23:50:16.699Z,13.40
2018-09-09T23:52:45.983Z,13.30
2018-09-09T23:55:15.240Z,13.20
2018-09-09T23:57:44.571Z,13.10
